Galena, Nevada Weather observations

Data are for 60 minute period ending nearest time listed.
 Day   Time    Ave.   Ave.  Ave.  Vector   Max.   Total    Solar   
  of    of     Air    Rel.  Wind   Wind    Wind  Precip.   Rad.    
Year   Day     Temp.  Hum.  Speed  Dir.    Gust                    
2026   (PST)    F      %     mph   deg.    mph     in.     W/m2    
------------------------------------------------------------------- 
 246   22:00   54.0    58   12.0   186     29.0    2.02       0  
 246   23:00   53.0    64    9.0   174     27.0    2.02       0  
 247    0:00   54.0    57   12.0   192     23.0    2.02       0  
 247    1:00   53.0    64   14.0   188     29.0    2.02       0  
 247    2:00   55.0    58   12.0   184     30.0    2.02       0  
 247    3:00   55.0    57   11.0   194     32.0    2.02       0  
 247    4:00   54.0    58    9.0   185     24.0    2.02       0  
 247    5:00   54.0    60    8.0   208     22.0    2.02       0  
 247    6:00   53.0    67    8.0   186     17.0    2.02       1  
 247    7:00   54.0    63    8.0   185     16.0    2.02      34  
 247    8:00   54.0    69    4.0   210     15.0    2.02      74  
 247    9:00   56.0    55    9.0   193     18.0    2.02     105  
 247   10:00   57.0    53   10.0   183     20.0    2.02     124  
 247   11:00   58.0    53   11.0   181     22.0    2.02     187  
 247   12:00   59.0    50   10.0   194     24.0    2.02     305  
 247   13:00   60.0    48   11.0   181     24.0    2.02     419  
 247   14:00   65.0    41   11.0   187     24.0    2.02     621  
 247   15:00   63.0    42   10.0   176     24.0    2.02     386  
 247   16:00   65.0    38    8.0   217     19.0    2.02     512  
 247   17:00   62.0    39   11.0   235     32.0    2.02     367  
 247   18:00   57.0    47   12.0   232     23.0    2.02     107  
 247   19:00   56.0    51   12.0   219     22.0    2.02       8  
 247   20:00   54.0    50    6.0   160     20.0    2.02       0  
 247   21:00   53.0    56    4.0    24     20.0    2.02       0  

Return to Galena, Nevada graphs page.


Western Regional Climate Center,wrcc@dri.edu